sensor_id;sensor_type;location;lat;lon;timestamp;P1;durP1;ratioP1;P2;durP2;ratioP2
72517;SDS011;60540;51.178;6.738;2022-12-01T00:00:41;23.05;;;9.60;;
72517;SDS011;60540;51.178;6.738;2022-12-01T00:03:17;19.02;;;9.20;;
72517;SDS011;60540;51.178;6.738;2022-12-01T00:05:42;20.30;;;9.70;;
72517;SDS011;60540;51.178;6.738;2022-12-01T00:08:08;20.05;;;9.07;;
72517;SDS011;60540;51.178;6.738;2022-12-01T00:10:34;19.92;;;8.45;;
72517;SDS011;60540;51.178;6.738;2022-12-01T00:13:01;18.52;;;9.60;;
72517;SDS011;60540;51.178;6.738;2022-12-01T00:15:28;22.13;;;9.98;;
72517;SDS011;60540;51.178;6.738;2022-12-01T00:17:59;22.00;;;9.48;;
72517;SDS011;60540;51.178;6.738;2022-12-01T00:20:25;19.92;;;9.30;;
72517;SDS011;60540;51.178;6.738;2022-12-01T00:22:51;20.50;;;9.15;;
72517;SDS011;60540;51.178;6.738;2022-12-01T00:25:17;20.52;;;9.18;;
72517;SDS011;60540;51.178;6.738;2022-12-01T00:27:46;22.88;;;10.20;;
72517;SDS011;60540;51.178;6.738;2022-12-01T00:30:13;21.77;;;10.05;;
72517;SDS011;60540;51.178;6.738;2022-12-01T00:32:39;19.88;;;8.55;;
72517;SDS011;60540;51.178;6.738;2022-12-01T00:35:04;20.60;;;9.00;;
72517;SDS011;60540;51.178;6.738;2022-12-01T00:37:32;18.70;;;8.90;;
72517;SDS011;60540;51.178;6.738;2022-12-01T00:39:58;20.88;;;8.85;;
72517;SDS011;60540;51.178;6.738;2022-12-01T00:42:24;21.45;;;9.50;;
72517;SDS011;60540;51.178;6.738;2022-12-01T00:44:49;21.85;;;9.30;;
72517;SDS011;60540;51.178;6.738;2022-12-01T00:47:15;21.05;;;9.25;;
72517;SDS011;60540;51.178;6.738;2022-12-01T00:49:41;18.10;;;9.07;;
72517;SDS011;60540;51.178;6.738;2022-12-01T00:52:08;20.48;;;9.27;;
72517;SDS011;60540;51.178;6.738;2022-12-01T00:54:33;18.65;;;9.10;;
72517;SDS011;60540;51.178;6.738;2022-12-01T00:56:59;19.50;;;9.13;;
72517;SDS011;60540;51.178;6.738;2022-12-01T00:59:25;18.83;;;9.35;;
72517;SDS011;60540;51.178;6.738;2022-12-01T01:01:51;21.70;;;9.30;;
72517;SDS011;60540;51.178;6.738;2022-12-01T01:04:17;18.52;;;9.93;;
72517;SDS011;60540;51.178;6.738;2022-12-01T01:06:42;20.35;;;8.75;;
72517;SDS011;60540;51.178;6.738;2022-12-01T01:09:08;18.75;;;8.27;;
72517;SDS011;60540;51.178;6.738;2022-12-01T01:11:35;18.92;;;8.45;;
72517;SDS011;60540;51.178;6.738;2022-12-01T01:14:00;19.55;;;9.23;;
72517;SDS011;60540;51.178;6.738;2022-12-01T01:16:26;22.25;;;9.20;;
72517;SDS011;60540;51.178;6.738;2022-12-01T01:18:52;15.82;;;9.10;;
72517;SDS011;60540;51.178;6.738;2022-12-01T01:21:18;18.15;;;8.05;;
72517;SDS011;60540;51.178;6.738;2022-12-01T01:23:45;21.48;;;10.52;;
72517;SDS011;60540;51.178;6.738;2022-12-01T01:26:14;18.25;;;8.70;;
72517;SDS011;60540;51.178;6.738;2022-12-01T01:28:41;22.98;;;10.05;;
72517;SDS011;60540;51.178;6.738;2022-12-01T01:31:08;23.17;;;10.25;;
72517;SDS011;60540;51.178;6.738;2022-12-01T01:33:35;23.40;;;10.45;;
72517;SDS011;60540;51.178;6.738;2022-12-01T01:36:02;22.90;;;9.48;;
72517;SDS011;60540;51.178;6.738;2022-12-01T01:38:28;23.13;;;9.88;;
72517;SDS011;60540;51.178;6.738;2022-12-01T01:40:54;28.48;;;10.90;;
72517;SDS011;60540;51.178;6.738;2022-12-01T01:43:37;22.00;;;10.52;;
72517;SDS011;60540;51.178;6.738;2022-12-01T01:46:15;23.25;;;10.20;;
72517;SDS011;60540;51.178;6.738;2022-12-01T01:48:43;23.25;;;9.82;;
72517;SDS011;60540;51.178;6.738;2022-12-01T01:51:12;21.67;;;9.25;;
72517;SDS011;60540;51.178;6.738;2022-12-01T01:53:39;24.42;;;10.85;;
72517;SDS011;60540;51.178;6.738;2022-12-01T01:56:05;23.20;;;9.43;;
72517;SDS011;60540;51.178;6.738;2022-12-01T01:58:34;27.92;;;10.80;;
72517;SDS011;60540;51.178;6.738;2022-12-01T02:01:00;22.98;;;10.15;;
72517;SDS011;60540;51.178;6.738;2022-12-01T02:03:26;21.92;;;9.70;;
72517;SDS011;60540;51.178;6.738;2022-12-01T02:05:52;21.45;;;10.10;;
72517;SDS011;60540;51.178;6.738;2022-12-01T02:08:18;23.90;;;9.77;;
72517;SDS011;60540;51.178;6.738;2022-12-01T02:13:31;18.80;;;9.50;;
72517;SDS011;60540;51.178;6.738;2022-12-01T02:21:45;25.67;;;10.82;;
72517;SDS011;60540;51.178;6.738;2022-12-01T02:24:41;27.52;;;10.05;;
72517;SDS011;60540;51.178;6.738;2022-12-01T02:38:07;28.85;;;11.00;;
72517;SDS011;60540;51.178;6.738;2022-12-01T02:40:45;26.67;;;11.40;;
72517;SDS011;60540;51.178;6.738;2022-12-01T02:43:18;23.38;;;10.25;;
72517;SDS011;60540;51.178;6.738;2022-12-01T02:45:49;29.38;;;11.23;;
72517;SDS011;60540;51.178;6.738;2022-12-01T02:48:34;25.00;;;9.57;;
72517;SDS011;60540;51.178;6.738;2022-12-01T02:51:10;27.88;;;10.85;;
72517;SDS011;60540;51.178;6.738;2022-12-01T02:53:38;24.33;;;11.45;;
72517;SDS011;60540;51.178;6.738;2022-12-01T02:56:05;26.73;;;10.93;;
72517;SDS011;60540;51.178;6.738;2022-12-01T02:58:33;27.65;;;11.93;;
72517;SDS011;60540;51.178;6.738;2022-12-01T03:01:06;25.33;;;11.07;;
72517;SDS011;60540;51.178;6.738;2022-12-01T03:03:58;29.77;;;10.98;;
72517;SDS011;60540;51.178;6.738;2022-12-01T03:06:45;29.83;;;11.13;;
72517;SDS011;60540;51.178;6.738;2022-12-01T03:09:28;32.10;;;11.23;;
72517;SDS011;60540;51.178;6.738;2022-12-01T03:18:24;28.65;;;11.43;;
72517;SDS011;60540;51.178;6.738;2022-12-01T03:23:43;32.92;;;12.30;;
72517;SDS011;60540;51.178;6.738;2022-12-01T03:26:10;30.35;;;13.00;;
72517;SDS011;60540;51.178;6.738;2022-12-01T03:28:42;29.42;;;11.05;;
72517;SDS011;60540;51.178;6.738;2022-12-01T03:31:12;31.48;;;12.05;;
72517;SDS011;60540;51.178;6.738;2022-12-01T03:33:46;28.52;;;11.82;;
72517;SDS011;60540;51.178;6.738;2022-12-01T03:36:16;30.35;;;11.80;;
72517;SDS011;60540;51.178;6.738;2022-12-01T03:38:45;35.13;;;12.88;;
72517;SDS011;60540;51.178;6.738;2022-12-01T03:41:17;34.53;;;12.68;;
72517;SDS011;60540;51.178;6.738;2022-12-01T03:43:46;34.53;;;10.98;;
72517;SDS011;60540;51.178;6.738;2022-12-01T03:49:08;31.90;;;13.00;;
72517;SDS011;60540;51.178;6.738;2022-12-01T03:54:44;32.28;;;13.13;;
72517;SDS011;60540;51.178;6.738;2022-12-01T03:57:17;27.42;;;10.73;;
72517;SDS011;60540;51.178;6.738;2022-12-01T03:59:50;26.73;;;10.32;;
72517;SDS011;60540;51.178;6.738;2022-12-01T04:02:16;32.75;;;12.88;;
72517;SDS011;60540;51.178;6.738;2022-12-01T04:04:42;31.77;;;12.20;;
72517;SDS011;60540;51.178;6.738;2022-12-01T04:07:08;33.28;;;12.25;;
72517;SDS011;60540;51.178;6.738;2022-12-01T04:09:38;34.00;;;12.02;;
72517;SDS011;60540;51.178;6.738;2022-12-01T04:12:08;35.95;;;12.88;;
72517;SDS011;60540;51.178;6.738;2022-12-01T04:14:55;38.08;;;13.13;;
72517;SDS011;60540;51.178;6.738;2022-12-01T04:17:21;36.85;;;13.30;;
72517;SDS011;60540;51.178;6.738;2022-12-01T04:19:47;29.00;;;12.20;;
72517;SDS011;60540;51.178;6.738;2022-12-01T04:22:13;33.10;;;13.05;;
72517;SDS011;60540;51.178;6.738;2022-12-01T04:24:39;28.00;;;11.43;;
72517;SDS011;60540;51.178;6.738;2022-12-01T04:27:04;28.25;;;12.07;;
72517;SDS011;60540;51.178;6.738;2022-12-01T04:29:30;28.40;;;12.00;;
72517;SDS011;60540;51.178;6.738;2022-12-01T04:31:55;34.40;;;12.82;;
72517;SDS011;60540;51.178;6.738;2022-12-01T04:34:21;30.98;;;13.15;;
72517;SDS011;60540;51.178;6.738;2022-12-01T04:36:47;27.70;;;11.15;;
72517;SDS011;60540;51.178;6.738;2022-12-01T04:39:12;28.63;;;10.50;;
72517;SDS011;60540;51.178;6.738;2022-12-01T04:41:38;29.00;;;11.30;;
72517;SDS011;60540;51.178;6.738;2022-12-01T04:44:04;24.02;;;9.73;;
72517;SDS011;60540;51.178;6.738;2022-12-01T04:46:30;22.35;;;11.00;;
72517;SDS011;60540;51.178;6.738;2022-12-01T04:48:55;22.02;;;8.98;;
72517;SDS011;60540;51.178;6.738;2022-12-01T04:51:21;27.95;;;10.70;;
72517;SDS011;60540;51.178;6.738;2022-12-01T04:53:47;24.42;;;10.23;;
72517;SDS011;60540;51.178;6.738;2022-12-01T04:56:14;20.42;;;10.05;;
72517;SDS011;60540;51.178;6.738;2022-12-01T04:58:39;22.48;;;10.02;;
72517;SDS011;60540;51.178;6.738;2022-12-01T05:01:06;25.88;;;9.82;;
72517;SDS011;60540;51.178;6.738;2022-12-01T05:03:36;23.13;;;10.63;;
72517;SDS011;60540;51.178;6.738;2022-12-01T05:06:04;23.55;;;9.73;;
72517;SDS011;60540;51.178;6.738;2022-12-01T05:08:31;21.17;;;10.10;;
72517;SDS011;60540;51.178;6.738;2022-12-01T05:10:58;26.70;;;10.00;;
72517;SDS011;60540;51.178;6.738;2022-12-01T05:13:24;22.55;;;9.52;;
72517;SDS011;60540;51.178;6.738;2022-12-01T05:15:50;20.38;;;9.43;;
72517;SDS011;60540;51.178;6.738;2022-12-01T05:18:16;22.63;;;9.27;;
72517;SDS011;60540;51.178;6.738;2022-12-01T05:20:41;20.65;;;9.15;;
72517;SDS011;60540;51.178;6.738;2022-12-01T05:23:26;18.55;;;8.73;;
72517;SDS011;60540;51.178;6.738;2022-12-01T05:25:53;21.42;;;9.90;;
72517;SDS011;60540;51.178;6.738;2022-12-01T05:28:19;23.38;;;9.80;;
72517;SDS011;60540;51.178;6.738;2022-12-01T05:30:46;20.65;;;8.13;;
72517;SDS011;60540;51.178;6.738;2022-12-01T05:33:12;22.50;;;10.05;;
72517;SDS011;60540;51.178;6.738;2022-12-01T05:35:38;19.98;;;9.45;;
72517;SDS011;60540;51.178;6.738;2022-12-01T05:38:04;23.17;;;10.77;;
72517;SDS011;60540;51.178;6.738;2022-12-01T05:40:29;22.33;;;9.80;;
72517;SDS011;60540;51.178;6.738;2022-12-01T05:42:56;24.83;;;10.50;;
72517;SDS011;60540;51.178;6.738;2022-12-01T05:45:22;21.88;;;9.00;;
72517;SDS011;60540;51.178;6.738;2022-12-01T05:47:47;24.45;;;9.98;;
72517;SDS011;60540;51.178;6.738;2022-12-01T05:50:13;23.30;;;10.73;;
72517;SDS011;60540;51.178;6.738;2022-12-01T05:52:39;22.73;;;10.73;;
72517;SDS011;60540;51.178;6.738;2022-12-01T05:55:05;25.88;;;11.32;;
72517;SDS011;60540;51.178;6.738;2022-12-01T05:57:31;22.00;;;9.85;;
72517;SDS011;60540;51.178;6.738;2022-12-01T05:59:57;21.55;;;9.35;;
72517;SDS011;60540;51.178;6.738;2022-12-01T06:02:23;17.95;;;8.63;;
72517;SDS011;60540;51.178;6.738;2022-12-01T06:04:51;22.90;;;10.07;;
72517;SDS011;60540;51.178;6.738;2022-12-01T06:07:18;20.58;;;9.23;;
72517;SDS011;60540;51.178;6.738;2022-12-01T06:09:44;23.75;;;10.35;;
72517;SDS011;60540;51.178;6.738;2022-12-01T06:12:11;21.98;;;10.05;;
72517;SDS011;60540;51.178;6.738;2022-12-01T06:14:37;21.27;;;9.32;;
72517;SDS011;60540;51.178;6.738;2022-12-01T06:17:02;26.27;;;10.55;;
72517;SDS011;60540;51.178;6.738;2022-12-01T06:19:28;24.67;;;10.88;;
72517;SDS011;60540;51.178;6.738;2022-12-01T06:21:55;27.15;;;10.95;;
72517;SDS011;60540;51.178;6.738;2022-12-01T06:24:21;26.92;;;11.80;;
72517;SDS011;60540;51.178;6.738;2022-12-01T06:26:47;26.85;;;11.43;;
72517;SDS011;60540;51.178;6.738;2022-12-01T06:29:12;25.73;;;10.93;;
72517;SDS011;60540;51.178;6.738;2022-12-01T06:31:38;25.10;;;11.40;;
72517;SDS011;60540;51.178;6.738;2022-12-01T06:34:04;27.20;;;11.18;;
72517;SDS011;60540;51.178;6.738;2022-12-01T06:36:29;26.70;;;11.48;;
72517;SDS011;60540;51.178;6.738;2022-12-01T06:38:55;20.88;;;10.02;;
72517;SDS011;60540;51.178;6.738;2022-12-01T06:41:21;24.42;;;10.15;;
72517;SDS011;60540;51.178;6.738;2022-12-01T06:43:46;29.58;;;10.73;;
72517;SDS011;60540;51.178;6.738;2022-12-01T06:46:12;24.80;;;10.60;;
72517;SDS011;60540;51.178;6.738;2022-12-01T06:48:38;32.20;;;12.75;;
72517;SDS011;60540;51.178;6.738;2022-12-01T06:51:03;30.45;;;12.40;;
72517;SDS011;60540;51.178;6.738;2022-12-01T06:53:29;32.17;;;14.13;;
72517;SDS011;60540;51.178;6.738;2022-12-01T06:55:58;30.15;;;13.48;;
72517;SDS011;60540;51.178;6.738;2022-12-01T07:00:54;29.92;;;13.93;;
72517;SDS011;60540;51.178;6.738;2022-12-01T07:03:19;29.55;;;12.55;;
72517;SDS011;60540;51.178;6.738;2022-12-01T07:05:53;28.00;;;12.30;;
72517;SDS011;60540;51.178;6.738;2022-12-01T07:08:20;29.42;;;11.55;;
72517;SDS011;60540;51.178;6.738;2022-12-01T07:10:45;28.35;;;12.45;;
72517;SDS011;60540;51.178;6.738;2022-12-01T07:13:20;26.90;;;11.82;;
72517;SDS011;60540;51.178;6.738;2022-12-01T07:15:46;30.38;;;12.50;;
72517;SDS011;60540;51.178;6.738;2022-12-01T07:18:11;25.45;;;10.13;;
72517;SDS011;60540;51.178;6.738;2022-12-01T07:20:37;26.48;;;12.32;;
72517;SDS011;60540;51.178;6.738;2022-12-01T07:23:03;23.48;;;10.68;;
72517;SDS011;60540;51.178;6.738;2022-12-01T07:25:28;26.85;;;10.88;;
72517;SDS011;60540;51.178;6.738;2022-12-01T07:27:54;26.08;;;11.35;;
72517;SDS011;60540;51.178;6.738;2022-12-01T07:30:19;28.02;;;11.38;;
72517;SDS011;60540;51.178;6.738;2022-12-01T07:32:45;26.75;;;12.05;;
72517;SDS011;60540;51.178;6.738;2022-12-01T07:35:11;22.85;;;10.32;;
72517;SDS011;60540;51.178;6.738;2022-12-01T07:37:36;25.08;;;10.57;;
72517;SDS011;60540;51.178;6.738;2022-12-01T07:40:02;23.77;;;9.75;;
72517;SDS011;60540;51.178;6.738;2022-12-01T07:42:27;20.23;;;9.60;;
72517;SDS011;60540;51.178;6.738;2022-12-01T07:44:53;22.48;;;10.40;;
72517;SDS011;60540;51.178;6.738;2022-12-01T07:47:19;20.88;;;10.63;;
72517;SDS011;60540;51.178;6.738;2022-12-01T07:49:45;22.83;;;9.93;;
72517;SDS011;60540;51.178;6.738;2022-12-01T07:52:10;23.15;;;10.43;;
72517;SDS011;60540;51.178;6.738;2022-12-01T07:54:36;25.20;;;10.73;;
72517;SDS011;60540;51.178;6.738;2022-12-01T07:57:01;22.52;;;9.55;;
72517;SDS011;60540;51.178;6.738;2022-12-01T07:59:27;25.52;;;10.23;;
72517;SDS011;60540;51.178;6.738;2022-12-01T08:01:53;25.67;;;11.00;;
72517;SDS011;60540;51.178;6.738;2022-12-01T08:04:19;26.77;;;10.40;;
72517;SDS011;60540;51.178;6.738;2022-12-01T08:06:44;24.45;;;10.20;;
72517;SDS011;60540;51.178;6.738;2022-12-01T08:09:10;25.02;;;11.07;;
72517;SDS011;60540;51.178;6.738;2022-12-01T08:11:35;23.73;;;9.70;;
72517;SDS011;60540;51.178;6.738;2022-12-01T08:14:01;27.25;;;11.57;;
72517;SDS011;60540;51.178;6.738;2022-12-01T08:16:27;27.98;;;10.63;;
72517;SDS011;60540;51.178;6.738;2022-12-01T08:18:53;27.65;;;10.43;;
72517;SDS011;60540;51.178;6.738;2022-12-01T08:21:19;23.33;;;10.40;;
72517;SDS011;60540;51.178;6.738;2022-12-01T08:23:46;25.23;;;11.40;;
72517;SDS011;60540;51.178;6.738;2022-12-01T08:26:16;32.40;;;15.23;;
72517;SDS011;60540;51.178;6.738;2022-12-01T08:28:43;31.38;;;13.30;;
72517;SDS011;60540;51.178;6.738;2022-12-01T08:31:10;29.75;;;12.07;;
72517;SDS011;60540;51.178;6.738;2022-12-01T08:33:37;34.17;;;12.18;;
72517;SDS011;60540;51.178;6.738;2022-12-01T08:36:03;33.90;;;12.18;;
72517;SDS011;60540;51.178;6.738;2022-12-01T08:38:29;32.05;;;13.23;;
72517;SDS011;60540;51.178;6.738;2022-12-01T08:40:58;32.97;;;12.93;;
72517;SDS011;60540;51.178;6.738;2022-12-01T08:43:27;29.45;;;12.10;;
72517;SDS011;60540;51.178;6.738;2022-12-01T08:45:56;27.38;;;12.30;;
72517;SDS011;60540;51.178;6.738;2022-12-01T08:48:23;24.70;;;11.65;;
72517;SDS011;60540;51.178;6.738;2022-12-01T08:50:48;27.17;;;11.88;;
72517;SDS011;60540;51.178;6.738;2022-12-01T08:53:14;30.77;;;11.27;;
72517;SDS011;60540;51.178;6.738;2022-12-01T08:55:39;28.85;;;11.93;;
72517;SDS011;60540;51.178;6.738;2022-12-01T08:58:05;32.97;;;12.55;;
72517;SDS011;60540;51.178;6.738;2022-12-01T09:00:30;29.45;;;12.20;;
72517;SDS011;60540;51.178;6.738;2022-12-01T09:02:56;28.42;;;11.93;;
72517;SDS011;60540;51.178;6.738;2022-12-01T09:05:22;26.23;;;10.30;;
72517;SDS011;60540;51.178;6.738;2022-12-01T09:07:47;32.45;;;12.02;;
72517;SDS011;60540;51.178;6.738;2022-12-01T09:12:58;29.83;;;11.35;;
72517;SDS011;60540;51.178;6.738;2022-12-01T09:15:24;26.63;;;10.02;;
72517;SDS011;60540;51.178;6.738;2022-12-01T09:17:50;27.25;;;10.70;;
72517;SDS011;60540;51.178;6.738;2022-12-01T09:20:15;28.08;;;10.82;;
72517;SDS011;60540;51.178;6.738;2022-12-01T09:22:41;35.65;;;12.98;;
72517;SDS011;60540;51.178;6.738;2022-12-01T09:25:06;34.40;;;11.82;;
72517;SDS011;60540;51.178;6.738;2022-12-01T09:27:39;28.25;;;12.00;;
72517;SDS011;60540;51.178;6.738;2022-12-01T09:30:04;28.20;;;11.65;;
72517;SDS011;60540;51.178;6.738;2022-12-01T09:32:31;29.33;;;12.27;;
72517;SDS011;60540;51.178;6.738;2022-12-01T09:34:56;27.55;;;11.95;;
72517;SDS011;60540;51.178;6.738;2022-12-01T09:37:22;30.95;;;12.65;;
72517;SDS011;60540;51.178;6.738;2022-12-01T09:39:47;26.92;;;12.45;;
72517;SDS011;60540;51.178;6.738;2022-12-01T09:42:14;26.77;;;12.27;;
72517;SDS011;60540;51.178;6.738;2022-12-01T09:44:44;27.08;;;11.90;;
72517;SDS011;60540;51.178;6.738;2022-12-01T09:47:30;28.55;;;11.55;;
72517;SDS011;60540;51.178;6.738;2022-12-01T09:52:33;28.63;;;11.68;;
72517;SDS011;60540;51.178;6.738;2022-12-01T09:55:05;31.08;;;11.85;;
72517;SDS011;60540;51.178;6.738;2022-12-01T09:57:36;31.38;;;13.57;;
72517;SDS011;60540;51.178;6.738;2022-12-01T10:00:05;30.65;;;13.05;;
72517;SDS011;60540;51.178;6.738;2022-12-01T10:02:39;31.70;;;13.15;;
72517;SDS011;60540;51.178;6.738;2022-12-01T10:05:17;27.98;;;12.02;;
72517;SDS011;60540;51.178;6.738;2022-12-01T10:07:46;32.35;;;12.07;;
72517;SDS011;60540;51.178;6.738;2022-12-01T10:10:27;29.85;;;11.27;;
72517;SDS011;60540;51.178;6.738;2022-12-01T10:12:55;34.10;;;13.32;;
72517;SDS011;60540;51.178;6.738;2022-12-01T10:32:17;28.15;;;11.60;;
72517;SDS011;60540;51.178;6.738;2022-12-01T10:34:55;28.45;;;10.00;;
72517;SDS011;60540;51.178;6.738;2022-12-01T10:37:24;23.88;;;10.63;;
72517;SDS011;60540;51.178;6.738;2022-12-01T10:39:53;25.63;;;10.80;;
72517;SDS011;60540;51.178;6.738;2022-12-01T10:50:42;22.98;;;9.68;;
72517;SDS011;60540;51.178;6.738;2022-12-01T10:53:24;24.77;;;10.07;;
72517;SDS011;60540;51.178;6.738;2022-12-01T10:55:58;25.90;;;11.48;;
72517;SDS011;60540;51.178;6.738;2022-12-01T10:58:30;25.00;;;10.82;;
72517;SDS011;60540;51.178;6.738;2022-12-01T11:00:58;26.15;;;10.75;;
72517;SDS011;60540;51.178;6.738;2022-12-01T11:03:27;26.52;;;11.23;;
72517;SDS011;60540;51.178;6.738;2022-12-01T11:05:56;23.70;;;10.95;;
72517;SDS011;60540;51.178;6.738;2022-12-01T11:08:44;23.23;;;10.25;;
72517;SDS011;60540;51.178;6.738;2022-12-01T11:14:15;21.13;;;8.48;;
72517;SDS011;60540;51.178;6.738;2022-12-01T11:16:44;21.00;;;8.70;;
72517;SDS011;60540;51.178;6.738;2022-12-01T11:21:55;25.10;;;8.65;;
72517;SDS011;60540;51.178;6.738;2022-12-01T11:26:56;24.38;;;9.80;;
72517;SDS011;60540;51.178;6.738;2022-12-01T11:29:26;25.58;;;9.88;;
72517;SDS011;60540;51.178;6.738;2022-12-01T11:34:21;22.40;;;9.20;;
72517;SDS011;60540;51.178;6.738;2022-12-01T11:36:50;25.38;;;10.60;;
72517;SDS011;60540;51.178;6.738;2022-12-01T11:39:25;22.42;;;9.40;;
72517;SDS011;60540;51.178;6.738;2022-12-01T11:41:56;20.95;;;9.00;;
72517;SDS011;60540;51.178;6.738;2022-12-01T11:44:22;21.75;;;8.68;;
72517;SDS011;60540;51.178;6.738;2022-12-01T11:46:48;23.50;;;9.48;;
72517;SDS011;60540;51.178;6.738;2022-12-01T11:49:15;19.85;;;8.90;;
72517;SDS011;60540;51.178;6.738;2022-12-01T11:51:43;23.83;;;9.90;;
72517;SDS011;60540;51.178;6.738;2022-12-01T11:54:13;21.30;;;8.68;;
72517;SDS011;60540;51.178;6.738;2022-12-01T11:56:41;20.70;;;9.48;;
72517;SDS011;60540;51.178;6.738;2022-12-01T12:07:16;23.38;;;10.30;;
72517;SDS011;60540;51.178;6.738;2022-12-01T12:10:08;23.38;;;9.68;;
72517;SDS011;60540;51.178;6.738;2022-12-01T12:21:21;23.73;;;10.38;;
72517;SDS011;60540;51.178;6.738;2022-12-01T12:29:49;23.67;;;11.32;;
72517;SDS011;60540;51.178;6.738;2022-12-01T12:40:21;25.70;;;11.18;;
72517;SDS011;60540;51.178;6.738;2022-12-01T12:48:30;26.90;;;12.38;;
72517;SDS011;60540;51.178;6.738;2022-12-01T12:51:07;24.40;;;11.52;;
72517;SDS011;60540;51.178;6.738;2022-12-01T12:53:43;27.60;;;14.05;;
72517;SDS011;60540;51.178;6.738;2022-12-01T12:56:13;25.95;;;11.63;;
72517;SDS011;60540;51.178;6.738;2022-12-01T12:59:00;24.83;;;12.52;;
72517;SDS011;60540;51.178;6.738;2022-12-01T13:01:29;27.33;;;12.68;;
72517;SDS011;60540;51.178;6.738;2022-12-01T13:04:12;26.63;;;12.48;;
72517;SDS011;60540;51.178;6.738;2022-12-01T13:06:42;28.45;;;12.77;;
72517;SDS011;60540;51.178;6.738;2022-12-01T13:09:16;32.05;;;13.95;;
72517;SDS011;60540;51.178;6.738;2022-12-01T13:11:51;30.65;;;13.98;;
72517;SDS011;60540;51.178;6.738;2022-12-01T13:16:56;34.53;;;14.63;;
72517;SDS011;60540;51.178;6.738;2022-12-01T13:19:39;34.30;;;14.15;;
72517;SDS011;60540;51.178;6.738;2022-12-01T13:22:06;34.55;;;15.48;;
72517;SDS011;60540;51.178;6.738;2022-12-01T13:24:32;32.63;;;15.15;;
72517;SDS011;60540;51.178;6.738;2022-12-01T13:27:01;32.30;;;14.35;;
72517;SDS011;60540;51.178;6.738;2022-12-01T13:29:31;36.10;;;15.85;;
72517;SDS011;60540;51.178;6.738;2022-12-01T13:31:58;33.83;;;14.80;;
72517;SDS011;60540;51.178;6.738;2022-12-01T13:34:25;32.05;;;15.23;;
72517;SDS011;60540;51.178;6.738;2022-12-01T13:36:53;33.10;;;14.70;;
72517;SDS011;60540;51.178;6.738;2022-12-01T13:39:23;33.55;;;15.90;;
72517;SDS011;60540;51.178;6.738;2022-12-01T13:41:55;34.30;;;15.15;;
72517;SDS011;60540;51.178;6.738;2022-12-01T13:44:30;33.00;;;14.50;;
72517;SDS011;60540;51.178;6.738;2022-12-01T13:46:58;31.85;;;14.88;;
72517;SDS011;60540;51.178;6.738;2022-12-01T13:49:40;32.92;;;15.30;;
72517;SDS011;60540;51.178;6.738;2022-12-01T14:02:25;36.75;;;15.73;;
72517;SDS011;60540;51.178;6.738;2022-12-01T14:04:54;31.30;;;14.73;;
72517;SDS011;60540;51.178;6.738;2022-12-01T14:07:52;34.90;;;15.05;;
72517;SDS011;60540;51.178;6.738;2022-12-01T14:10:15;35.30;;;15.80;;
72517;SDS011;60540;51.178;6.738;2022-12-01T14:12:43;34.85;;;15.95;;
72517;SDS011;60540;51.178;6.738;2022-12-01T14:15:52;36.60;;;15.45;;
72517;SDS011;60540;51.178;6.738;2022-12-01T14:18:18;38.25;;;16.85;;
72517;SDS011;60540;51.178;6.738;2022-12-01T14:20:50;38.22;;;16.65;;
72517;SDS011;60540;51.178;6.738;2022-12-01T14:23:25;36.47;;;15.13;;
72517;SDS011;60540;51.178;6.738;2022-12-01T14:31:19;38.78;;;16.95;;
72517;SDS011;60540;51.178;6.738;2022-12-01T14:33:51;38.22;;;18.00;;
72517;SDS011;60540;51.178;6.738;2022-12-01T14:38:49;36.53;;;16.98;;
72517;SDS011;60540;51.178;6.738;2022-12-01T14:41:21;37.17;;;17.63;;
72517;SDS011;60540;51.178;6.738;2022-12-01T14:43:50;48.33;;;22.25;;
72517;SDS011;60540;51.178;6.738;2022-12-01T14:47:14;40.47;;;19.38;;
72517;SDS011;60540;51.178;6.738;2022-12-01T14:49:24;46.17;;;17.58;;
72517;SDS011;60540;51.178;6.738;2022-12-01T14:51:54;36.83;;;16.25;;
72517;SDS011;60540;51.178;6.738;2022-12-01T14:54:24;39.10;;;17.20;;
72517;SDS011;60540;51.178;6.738;2022-12-01T14:56:54;37.45;;;16.60;;
72517;SDS011;60540;51.178;6.738;2022-12-01T14:59:22;38.15;;;15.90;;
72517;SDS011;60540;51.178;6.738;2022-12-01T15:01:51;37.42;;;15.90;;
72517;SDS011;60540;51.178;6.738;2022-12-01T15:04:19;39.83;;;17.35;;
72517;SDS011;60540;51.178;6.738;2022-12-01T15:06:45;42.50;;;18.20;;
72517;SDS011;60540;51.178;6.738;2022-12-01T15:09:12;38.35;;;16.92;;
72517;SDS011;60540;51.178;6.738;2022-12-01T15:11:50;41.42;;;17.70;;
72517;SDS011;60540;51.178;6.738;2022-12-01T15:16:54;41.80;;;18.27;;
72517;SDS011;60540;51.178;6.738;2022-12-01T15:19:34;41.45;;;18.08;;
72517;SDS011;60540;51.178;6.738;2022-12-01T15:22:02;45.08;;;19.30;;
72517;SDS011;60540;51.178;6.738;2022-12-01T15:24:30;43.25;;;19.60;;
72517;SDS011;60540;51.178;6.738;2022-12-01T15:26:58;36.20;;;16.65;;
72517;SDS011;60540;51.178;6.738;2022-12-01T15:29:31;41.85;;;19.13;;
72517;SDS011;60540;51.178;6.738;2022-12-01T15:32:09;38.88;;;18.67;;
72517;SDS011;60540;51.178;6.738;2022-12-01T15:34:40;39.58;;;18.45;;
72517;SDS011;60540;51.178;6.738;2022-12-01T15:37:12;37.83;;;17.52;;
72517;SDS011;60540;51.178;6.738;2022-12-01T15:39:43;44.83;;;17.90;;
72517;SDS011;60540;51.178;6.738;2022-12-01T15:42:20;43.35;;;18.52;;
72517;SDS011;60540;51.178;6.738;2022-12-01T15:44:46;39.72;;;18.13;;
72517;SDS011;60540;51.178;6.738;2022-12-01T15:50:01;44.90;;;17.85;;
72517;SDS011;60540;51.178;6.738;2022-12-01T15:52:28;42.97;;;19.17;;
72517;SDS011;60540;51.178;6.738;2022-12-01T15:54:54;45.58;;;18.33;;
72517;SDS011;60540;51.178;6.738;2022-12-01T15:57:21;43.63;;;19.15;;
72517;SDS011;60540;51.178;6.738;2022-12-01T15:59:52;56.38;;;23.42;;
72517;SDS011;60540;51.178;6.738;2022-12-01T16:04:45;46.90;;;19.67;;
72517;SDS011;60540;51.178;6.738;2022-12-01T16:07:11;44.13;;;20.75;;
72517;SDS011;60540;51.178;6.738;2022-12-01T16:09:38;41.47;;;17.70;;
72517;SDS011;60540;51.178;6.738;2022-12-01T16:12:21;37.47;;;18.27;;
72517;SDS011;60540;51.178;6.738;2022-12-01T16:14:49;39.72;;;18.60;;
72517;SDS011;60540;51.178;6.738;2022-12-01T16:17:18;41.97;;;18.45;;
72517;SDS011;60540;51.178;6.738;2022-12-01T16:19:45;41.55;;;19.40;;
72517;SDS011;60540;51.178;6.738;2022-12-01T16:24:57;42.28;;;18.15;;
72517;SDS011;60540;51.178;6.738;2022-12-01T16:27:25;41.28;;;18.52;;
72517;SDS011;60540;51.178;6.738;2022-12-01T16:29:53;41.17;;;19.98;;
72517;SDS011;60540;51.178;6.738;2022-12-01T16:32:26;41.75;;;17.00;;
72517;SDS011;60540;51.178;6.738;2022-12-01T16:37:28;38.40;;;17.63;;
72517;SDS011;60540;51.178;6.738;2022-12-01T16:39:55;44.47;;;19.33;;
72517;SDS011;60540;51.178;6.738;2022-12-01T16:42:20;41.20;;;18.20;;
72517;SDS011;60540;51.178;6.738;2022-12-01T16:44:46;38.72;;;18.00;;
72517;SDS011;60540;51.178;6.738;2022-12-01T16:47:19;42.35;;;18.45;;
72517;SDS011;60540;51.178;6.738;2022-12-01T16:49:47;38.38;;;19.05;;
72517;SDS011;60540;51.178;6.738;2022-12-01T16:52:13;38.35;;;16.92;;
72517;SDS011;60540;51.178;6.738;2022-12-01T16:54:39;44.35;;;19.80;;
72517;SDS011;60540;51.178;6.738;2022-12-01T16:57:05;35.90;;;17.02;;
72517;SDS011;60540;51.178;6.738;2022-12-01T16:59:31;35.20;;;15.85;;
72517;SDS011;60540;51.178;6.738;2022-12-01T17:01:56;38.83;;;16.02;;